sensor_id;sensor_type;location;lat;lon;timestamp;P1;durP1;ratioP1;P2;durP2;ratioP2
68505;SDS011;55509;50.680;17.942;2022-08-25T00:00:15;23.40;;;18.70;;
68505;SDS011;55509;50.680;17.942;2022-08-25T00:03:37;30.10;;;19.30;;
68505;SDS011;55509;50.680;17.942;2022-08-25T00:06:39;24.70;;;20.80;;
68505;SDS011;55509;50.680;17.942;2022-08-25T00:09:42;28.00;;;19.30;;
68505;SDS011;55509;50.680;17.942;2022-08-25T00:12:43;24.40;;;21.10;;
68505;SDS011;55509;50.680;17.942;2022-08-25T00:15:45;27.50;;;21.60;;
68505;SDS011;55509;50.680;17.942;2022-08-25T00:18:48;28.40;;;20.50;;
68505;SDS011;55509;50.680;17.942;2022-08-25T00:21:52;25.50;;;20.80;;
68505;SDS011;55509;50.680;17.942;2022-08-25T00:24:54;37.00;;;21.30;;
68505;SDS011;55509;50.680;17.942;2022-08-25T00:27:55;24.10;;;19.10;;
68505;SDS011;55509;50.680;17.942;2022-08-25T00:30:59;26.90;;;19.70;;
68505;SDS011;55509;50.680;17.942;2022-08-25T00:34:02;23.70;;;19.00;;
68505;SDS011;55509;50.680;17.942;2022-08-25T00:37:06;28.20;;;19.40;;
68505;SDS011;55509;50.680;17.942;2022-08-25T00:40:10;24.60;;;18.50;;
68505;SDS011;55509;50.680;17.942;2022-08-25T00:43:12;22.30;;;20.00;;
68505;SDS011;55509;50.680;17.942;2022-08-25T00:46:15;25.30;;;19.50;;
68505;SDS011;55509;50.680;17.942;2022-08-25T00:49:40;27.60;;;20.40;;
68505;SDS011;55509;50.680;17.942;2022-08-25T00:52:46;28.00;;;22.20;;
68505;SDS011;55509;50.680;17.942;2022-08-25T00:55:51;27.20;;;20.00;;
68505;SDS011;55509;50.680;17.942;2022-08-25T00:58:53;21.10;;;18.30;;
68505;SDS011;55509;50.680;17.942;2022-08-25T01:01:56;21.60;;;17.80;;
68505;SDS011;55509;50.680;17.942;2022-08-25T01:04:59;30.70;;;18.60;;
68505;SDS011;55509;50.680;17.942;2022-08-25T01:08:00;20.50;;;17.00;;
68505;SDS011;55509;50.680;17.942;2022-08-25T01:11:05;20.30;;;17.30;;
68505;SDS011;55509;50.680;17.942;2022-08-25T01:14:08;20.00;;;17.00;;
68505;SDS011;55509;50.680;17.942;2022-08-25T01:17:11;20.60;;;18.20;;
68505;SDS011;55509;50.680;17.942;2022-08-25T01:20:14;19.90;;;17.60;;
68505;SDS011;55509;50.680;17.942;2022-08-25T01:23:18;22.30;;;15.20;;
68505;SDS011;55509;50.680;17.942;2022-08-25T01:26:24;22.20;;;16.10;;
68505;SDS011;55509;50.680;17.942;2022-08-25T01:29:28;18.40;;;16.40;;
68505;SDS011;55509;50.680;17.942;2022-08-25T01:32:31;21.20;;;18.10;;
68505;SDS011;55509;50.680;17.942;2022-08-25T01:35:35;24.90;;;16.40;;
68505;SDS011;55509;50.680;17.942;2022-08-25T01:38:37;17.60;;;15.50;;
68505;SDS011;55509;50.680;17.942;2022-08-25T01:41:48;25.60;;;16.20;;
68505;SDS011;55509;50.680;17.942;2022-08-25T01:44:59;15.30;;;13.70;;
68505;SDS011;55509;50.680;17.942;2022-08-25T01:48:01;22.20;;;15.20;;
68505;SDS011;55509;50.680;17.942;2022-08-25T01:51:03;18.70;;;14.20;;
68505;SDS011;55509;50.680;17.942;2022-08-25T01:54:04;25.60;;;15.10;;
68505;SDS011;55509;50.680;17.942;2022-08-25T01:57:06;20.00;;;15.20;;
68505;SDS011;55509;50.680;17.942;2022-08-25T02:00:09;15.00;;;13.30;;
68505;SDS011;55509;50.680;17.942;2022-08-25T02:03:14;20.40;;;14.60;;
68505;SDS011;55509;50.680;17.942;2022-08-25T02:06:20;22.90;;;12.20;;
68505;SDS011;55509;50.680;17.942;2022-08-25T02:09:29;16.00;;;13.20;;
68505;SDS011;55509;50.680;17.942;2022-08-25T02:12:30;18.20;;;12.70;;
68505;SDS011;55509;50.680;17.942;2022-08-25T02:15:33;15.60;;;11.90;;
68505;SDS011;55509;50.680;17.942;2022-08-25T02:18:35;19.50;;;12.90;;
68505;SDS011;55509;50.680;17.942;2022-08-25T02:21:37;18.00;;;13.60;;
68505;SDS011;55509;50.680;17.942;2022-08-25T02:24:39;18.50;;;11.90;;
68505;SDS011;55509;50.680;17.942;2022-08-25T02:27:41;13.10;;;11.90;;
68505;SDS011;55509;50.680;17.942;2022-08-25T02:30:43;16.60;;;11.30;;
68505;SDS011;55509;50.680;17.942;2022-08-25T02:33:45;14.50;;;10.60;;
68505;SDS011;55509;50.680;17.942;2022-08-25T02:36:47;25.30;;;11.60;;
68505;SDS011;55509;50.680;17.942;2022-08-25T02:39:48;20.40;;;11.50;;
68505;SDS011;55509;50.680;17.942;2022-08-25T02:42:50;16.50;;;10.50;;
68505;SDS011;55509;50.680;17.942;2022-08-25T02:45:52;14.50;;;10.60;;
68505;SDS011;55509;50.680;17.942;2022-08-25T02:48:55;16.70;;;11.80;;
68505;SDS011;55509;50.680;17.942;2022-08-25T02:51:57;15.30;;;12.00;;
68505;SDS011;55509;50.680;17.942;2022-08-25T02:55:01;26.30;;;11.00;;
68505;SDS011;55509;50.680;17.942;2022-08-25T02:58:05;13.30;;;11.00;;
68505;SDS011;55509;50.680;17.942;2022-08-25T03:01:07;17.70;;;11.40;;
68505;SDS011;55509;50.680;17.942;2022-08-25T03:04:12;16.60;;;10.00;;
68505;SDS011;55509;50.680;17.942;2022-08-25T03:07:14;18.10;;;10.20;;
68505;SDS011;55509;50.680;17.942;2022-08-25T03:10:16;11.10;;;9.10;;
68505;SDS011;55509;50.680;17.942;2022-08-25T03:13:19;15.60;;;12.40;;
68505;SDS011;55509;50.680;17.942;2022-08-25T03:16:21;17.20;;;12.40;;
68505;SDS011;55509;50.680;17.942;2022-08-25T03:19:23;14.20;;;12.70;;
68505;SDS011;55509;50.680;17.942;2022-08-25T03:22:25;18.40;;;13.20;;
68505;SDS011;55509;50.680;17.942;2022-08-25T03:25:27;25.70;;;13.20;;
68505;SDS011;55509;50.680;17.942;2022-08-25T03:28:47;16.00;;;12.30;;
68505;SDS011;55509;50.680;17.942;2022-08-25T03:31:49;24.30;;;12.70;;
68505;SDS011;55509;50.680;17.942;2022-08-25T03:34:52;24.70;;;14.30;;
68505;SDS011;55509;50.680;17.942;2022-08-25T03:37:55;22.10;;;14.40;;
68505;SDS011;55509;50.680;17.942;2022-08-25T03:40:57;15.40;;;13.50;;
68505;SDS011;55509;50.680;17.942;2022-08-25T03:43:59;20.00;;;15.10;;
68505;SDS011;55509;50.680;17.942;2022-08-25T03:47:01;14.90;;;13.50;;
68505;SDS011;55509;50.680;17.942;2022-08-25T03:50:04;16.20;;;14.20;;
68505;SDS011;55509;50.680;17.942;2022-08-25T03:53:08;19.00;;;13.20;;
68505;SDS011;55509;50.680;17.942;2022-08-25T03:56:10;15.90;;;12.80;;
68505;SDS011;55509;50.680;17.942;2022-08-25T03:59:11;18.00;;;12.40;;
68505;SDS011;55509;50.680;17.942;2022-08-25T04:02:13;14.90;;;13.20;;
68505;SDS011;55509;50.680;17.942;2022-08-25T04:05:14;17.10;;;12.40;;
68505;SDS011;55509;50.680;17.942;2022-08-25T04:08:16;18.10;;;13.00;;
68505;SDS011;55509;50.680;17.942;2022-08-25T04:11:20;15.40;;;12.40;;
68505;SDS011;55509;50.680;17.942;2022-08-25T04:14:22;17.30;;;12.20;;
68505;SDS011;55509;50.680;17.942;2022-08-25T04:17:24;14.10;;;11.70;;
68505;SDS011;55509;50.680;17.942;2022-08-25T04:20:26;18.30;;;12.30;;
68505;SDS011;55509;50.680;17.942;2022-08-25T04:23:27;16.40;;;11.40;;
68505;SDS011;55509;50.680;17.942;2022-08-25T04:26:30;16.40;;;12.30;;
68505;SDS011;55509;50.680;17.942;2022-08-25T04:29:35;25.90;;;11.40;;
68505;SDS011;55509;50.680;17.942;2022-08-25T04:32:36;19.40;;;11.60;;
68505;SDS011;55509;50.680;17.942;2022-08-25T04:35:38;36.30;;;30.60;;
68505;SDS011;55509;50.680;17.942;2022-08-25T04:38:41;39.30;;;29.70;;
68505;SDS011;55509;50.680;17.942;2022-08-25T04:41:44;12.40;;;11.00;;
68505;SDS011;55509;50.680;17.942;2022-08-25T04:44:47;12.10;;;10.70;;
68505;SDS011;55509;50.680;17.942;2022-08-25T04:47:48;31.90;;;17.90;;
68505;SDS011;55509;50.680;17.942;2022-08-25T04:50:50;36.90;;;28.50;;
68505;SDS011;55509;50.680;17.942;2022-08-25T04:53:52;20.50;;;15.00;;
68505;SDS011;55509;50.680;17.942;2022-08-25T04:56:54;23.60;;;11.40;;
68505;SDS011;55509;50.680;17.942;2022-08-25T04:59:55;17.50;;;9.70;;
68505;SDS011;55509;50.680;17.942;2022-08-25T05:02:57;14.30;;;10.60;;
68505;SDS011;55509;50.680;17.942;2022-08-25T05:05:59;13.00;;;10.50;;
68505;SDS011;55509;50.680;17.942;2022-08-25T05:09:01;14.20;;;10.60;;
68505;SDS011;55509;50.680;17.942;2022-08-25T05:12:04;27.60;;;16.00;;
68505;SDS011;55509;50.680;17.942;2022-08-25T05:15:06;15.50;;;10.60;;
68505;SDS011;55509;50.680;17.942;2022-08-25T05:21:30;15.90;;;9.40;;
68505;SDS011;55509;50.680;17.942;2022-08-25T05:24:33;13.60;;;8.30;;
68505;SDS011;55509;50.680;17.942;2022-08-25T05:27:35;16.30;;;8.80;;
68505;SDS011;55509;50.680;17.942;2022-08-25T05:30:37;21.50;;;10.00;;
68505;SDS011;55509;50.680;17.942;2022-08-25T05:33:40;13.00;;;9.60;;
68505;SDS011;55509;50.680;17.942;2022-08-25T05:36:43;14.90;;;10.30;;
68505;SDS011;55509;50.680;17.942;2022-08-25T05:39:44;20.30;;;10.10;;
68505;SDS011;55509;50.680;17.942;2022-08-25T05:42:46;18.50;;;9.60;;
68505;SDS011;55509;50.680;17.942;2022-08-25T05:45:47;16.30;;;10.30;;
68505;SDS011;55509;50.680;17.942;2022-08-25T05:48:49;17.80;;;10.20;;
68505;SDS011;55509;50.680;17.942;2022-08-25T05:51:50;17.30;;;9.40;;
68505;SDS011;55509;50.680;17.942;2022-08-25T05:54:52;13.80;;;12.10;;
68505;SDS011;55509;50.680;17.942;2022-08-25T05:57:54;17.20;;;12.90;;
68505;SDS011;55509;50.680;17.942;2022-08-25T06:00:57;23.20;;;15.00;;
68505;SDS011;55509;50.680;17.942;2022-08-25T06:04:19;13.20;;;11.30;;
68505;SDS011;55509;50.680;17.942;2022-08-25T06:07:22;15.70;;;13.10;;
68505;SDS011;55509;50.680;17.942;2022-08-25T06:10:24;19.10;;;12.70;;
68505;SDS011;55509;50.680;17.942;2022-08-25T06:13:26;13.90;;;10.80;;
68505;SDS011;55509;50.680;17.942;2022-08-25T06:16:28;17.20;;;9.30;;
68505;SDS011;55509;50.680;17.942;2022-08-25T06:19:29;27.30;;;10.50;;
68505;SDS011;55509;50.680;17.942;2022-08-25T06:22:31;17.60;;;10.20;;
68505;SDS011;55509;50.680;17.942;2022-08-25T06:25:33;19.10;;;11.10;;
68505;SDS011;55509;50.680;17.942;2022-08-25T06:28:35;14.30;;;10.60;;
68505;SDS011;55509;50.680;17.942;2022-08-25T06:31:36;23.10;;;11.40;;
68505;SDS011;55509;50.680;17.942;2022-08-25T06:34:38;18.20;;;11.90;;
68505;SDS011;55509;50.680;17.942;2022-08-25T06:37:39;22.80;;;11.60;;
68505;SDS011;55509;50.680;17.942;2022-08-25T06:40:42;19.10;;;12.30;;
68505;SDS011;55509;50.680;17.942;2022-08-25T06:43:48;18.30;;;11.60;;
68505;SDS011;55509;50.680;17.942;2022-08-25T06:46:49;17.50;;;11.80;;
68505;SDS011;55509;50.680;17.942;2022-08-25T06:49:51;16.30;;;11.50;;
68505;SDS011;55509;50.680;17.942;2022-08-25T06:52:53;17.80;;;10.80;;
68505;SDS011;55509;50.680;17.942;2022-08-25T06:55:55;15.90;;;10.80;;
68505;SDS011;55509;50.680;17.942;2022-08-25T06:58:59;19.90;;;11.90;;
68505;SDS011;55509;50.680;17.942;2022-08-25T07:02:03;15.90;;;11.80;;
68505;SDS011;55509;50.680;17.942;2022-08-25T07:05:06;16.20;;;12.40;;
68505;SDS011;55509;50.680;17.942;2022-08-25T07:08:08;22.00;;;10.90;;
68505;SDS011;55509;50.680;17.942;2022-08-25T07:11:11;16.00;;;11.40;;
68505;SDS011;55509;50.680;17.942;2022-08-25T07:14:15;21.50;;;10.40;;
68505;SDS011;55509;50.680;17.942;2022-08-25T07:17:18;13.90;;;9.00;;
68505;SDS011;55509;50.680;17.942;2022-08-25T07:20:20;22.20;;;11.70;;
68505;SDS011;55509;50.680;17.942;2022-08-25T07:23:21;16.30;;;10.30;;
68505;SDS011;55509;50.680;17.942;2022-08-25T07:26:24;17.10;;;10.50;;
68505;SDS011;55509;50.680;17.942;2022-08-25T07:29:28;14.70;;;9.70;;
68505;SDS011;55509;50.680;17.942;2022-08-25T07:32:32;12.00;;;10.10;;
68505;SDS011;55509;50.680;17.942;2022-08-25T07:35:34;25.00;;;9.90;;
68505;SDS011;55509;50.680;17.942;2022-08-25T07:38:37;16.50;;;10.30;;
68505;SDS011;55509;50.680;17.942;2022-08-25T07:41:39;13.30;;;8.40;;
68505;SDS011;55509;50.680;17.942;2022-08-25T07:44:42;14.90;;;9.60;;
68505;SDS011;55509;50.680;17.942;2022-08-25T07:47:44;12.20;;;8.40;;
68505;SDS011;55509;50.680;17.942;2022-08-25T07:50:46;16.00;;;8.70;;
68505;SDS011;55509;50.680;17.942;2022-08-25T07:53:48;13.10;;;9.90;;
68505;SDS011;55509;50.680;17.942;2022-08-25T07:56:50;15.70;;;8.30;;
68505;SDS011;55509;50.680;17.942;2022-08-25T07:59:51;15.20;;;10.30;;
68505;SDS011;55509;50.680;17.942;2022-08-25T08:02:53;8.40;;;7.70;;
68505;SDS011;55509;50.680;17.942;2022-08-25T08:05:56;11.90;;;9.00;;
68505;SDS011;55509;50.680;17.942;2022-08-25T08:08:57;12.00;;;9.00;;
68505;SDS011;55509;50.680;17.942;2022-08-25T08:12:00;12.70;;;8.50;;
68505;SDS011;55509;50.680;17.942;2022-08-25T08:15:02;16.00;;;8.00;;
68505;SDS011;55509;50.680;17.942;2022-08-25T08:18:04;16.50;;;7.60;;
68505;SDS011;55509;50.680;17.942;2022-08-25T08:21:09;9.70;;;6.60;;
68505;SDS011;55509;50.680;17.942;2022-08-25T08:24:13;13.60;;;6.80;;
68505;SDS011;55509;50.680;17.942;2022-08-25T08:27:14;14.60;;;7.10;;
68505;SDS011;55509;50.680;17.942;2022-08-25T08:30:16;13.90;;;6.30;;
68505;SDS011;55509;50.680;17.942;2022-08-25T08:33:22;13.40;;;6.80;;
68505;SDS011;55509;50.680;17.942;2022-08-25T08:36:24;14.80;;;5.70;;
68505;SDS011;55509;50.680;17.942;2022-08-25T08:39:26;22.30;;;6.70;;
68505;SDS011;55509;50.680;17.942;2022-08-25T08:42:48;12.30;;;6.70;;
68505;SDS011;55509;50.680;17.942;2022-08-25T08:46:02;22.60;;;6.80;;
68505;SDS011;55509;50.680;17.942;2022-08-25T08:49:05;13.90;;;6.00;;
68505;SDS011;55509;50.680;17.942;2022-08-25T08:52:26;17.00;;;6.20;;
68505;SDS011;55509;50.680;17.942;2022-08-25T08:59:08;30.30;;;7.40;;
68505;SDS011;55509;50.680;17.942;2022-08-25T09:02:17;12.70;;;5.90;;
68505;SDS011;55509;50.680;17.942;2022-08-25T09:05:26;12.30;;;6.80;;
68505;SDS011;55509;50.680;17.942;2022-08-25T09:08:29;11.10;;;6.70;;
68505;SDS011;55509;50.680;17.942;2022-08-25T09:11:50;8.20;;;7.00;;
68505;SDS011;55509;50.680;17.942;2022-08-25T09:18:55;10.40;;;6.20;;
68505;SDS011;55509;50.680;17.942;2022-08-25T09:25:44;21.20;;;7.30;;
68505;SDS011;55509;50.680;17.942;2022-08-25T09:29:01;8.40;;;7.10;;
68505;SDS011;55509;50.680;17.942;2022-08-25T09:32:07;12.00;;;7.20;;
68505;SDS011;55509;50.680;17.942;2022-08-25T09:35:12;10.80;;;8.20;;
68505;SDS011;55509;50.680;17.942;2022-08-25T09:38:19;14.10;;;7.40;;
68505;SDS011;55509;50.680;17.942;2022-08-25T09:44:50;9.70;;;7.30;;
68505;SDS011;55509;50.680;17.942;2022-08-25T09:47:52;12.90;;;7.60;;
68505;SDS011;55509;50.680;17.942;2022-08-25T09:50:58;21.70;;;8.30;;
68505;SDS011;55509;50.680;17.942;2022-08-25T09:54:04;15.90;;;7.70;;
68505;SDS011;55509;50.680;17.942;2022-08-25T09:57:26;15.00;;;7.80;;
68505;SDS011;55509;50.680;17.942;2022-08-25T10:00:33;17.40;;;6.80;;
68505;SDS011;55509;50.680;17.942;2022-08-25T10:03:35;13.20;;;7.00;;
68505;SDS011;55509;50.680;17.942;2022-08-25T10:06:43;14.40;;;7.60;;
68505;SDS011;55509;50.680;17.942;2022-08-25T10:09:51;20.70;;;8.50;;
68505;SDS011;55509;50.680;17.942;2022-08-25T10:12:55;19.20;;;7.30;;
68505;SDS011;55509;50.680;17.942;2022-08-25T10:19:29;21.50;;;8.30;;
68505;SDS011;55509;50.680;17.942;2022-08-25T10:22:30;14.60;;;7.10;;
68505;SDS011;55509;50.680;17.942;2022-08-25T10:25:32;11.60;;;7.10;;
68505;SDS011;55509;50.680;17.942;2022-08-25T10:32:04;15.30;;;5.90;;
68505;SDS011;55509;50.680;17.942;2022-08-25T10:35:11;13.40;;;7.40;;
68505;SDS011;55509;50.680;17.942;2022-08-25T10:38:25;19.90;;;8.20;;
68505;SDS011;55509;50.680;17.942;2022-08-25T10:41:46;14.20;;;7.70;;
68505;SDS011;55509;50.680;17.942;2022-08-25T10:48:29;22.90;;;8.60;;
68505;SDS011;55509;50.680;17.942;2022-08-25T10:55:21;15.00;;;8.60;;
68505;SDS011;55509;50.680;17.942;2022-08-25T10:58:53;13.40;;;9.70;;
68505;SDS011;55509;50.680;17.942;2022-08-25T11:08:41;20.00;;;9.80;;
68505;SDS011;55509;50.680;17.942;2022-08-25T11:12:00;22.30;;;10.30;;
68505;SDS011;55509;50.680;17.942;2022-08-25T11:15:11;18.80;;;11.40;;
68505;SDS011;55509;50.680;17.942;2022-08-25T11:18:19;14.40;;;10.10;;
68505;SDS011;55509;50.680;17.942;2022-08-25T11:21:26;14.80;;;9.60;;
68505;SDS011;55509;50.680;17.942;2022-08-25T11:28:10;13.20;;;10.20;;
68505;SDS011;55509;50.680;17.942;2022-08-25T11:31:16;25.50;;;12.70;;
68505;SDS011;55509;50.680;17.942;2022-08-25T11:34:20;19.20;;;11.00;;
68505;SDS011;55509;50.680;17.942;2022-08-25T11:37:23;21.50;;;11.20;;
68505;SDS011;55509;50.680;17.942;2022-08-25T11:40:39;18.70;;;11.00;;
68505;SDS011;55509;50.680;17.942;2022-08-25T11:50:32;14.00;;;9.80;;
68505;SDS011;55509;50.680;17.942;2022-08-25T11:53:37;23.40;;;10.80;;
68505;SDS011;55509;50.680;17.942;2022-08-25T11:56:49;23.20;;;10.90;;
68505;SDS011;55509;50.680;17.942;2022-08-25T12:00:01;21.20;;;12.10;;
68505;SDS011;55509;50.680;17.942;2022-08-25T12:06:32;21.50;;;11.10;;
68505;SDS011;55509;50.680;17.942;2022-08-25T12:12:55;20.10;;;11.60;;
68505;SDS011;55509;50.680;17.942;2022-08-25T12:16:02;28.80;;;11.90;;
68505;SDS011;55509;50.680;17.942;2022-08-25T12:25:36;23.50;;;10.70;;
68505;SDS011;55509;50.680;17.942;2022-08-25T12:35:25;22.80;;;11.30;;
68505;SDS011;55509;50.680;17.942;2022-08-25T12:38:33;32.40;;;10.50;;
68505;SDS011;55509;50.680;17.942;2022-08-25T12:41:50;17.80;;;11.10;;
68505;SDS011;55509;50.680;17.942;2022-08-25T12:57:53;28.80;;;9.40;;
68505;SDS011;55509;50.680;17.942;2022-08-25T13:01:09;26.30;;;9.30;;
68505;SDS011;55509;50.680;17.942;2022-08-25T13:11:11;29.60;;;9.70;;
68505;SDS011;55509;50.680;17.942;2022-08-25T13:14:36;21.50;;;9.30;;
68505;SDS011;55509;50.680;17.942;2022-08-25T13:17:39;16.00;;;7.90;;
68505;SDS011;55509;50.680;17.942;2022-08-25T13:20:41;30.50;;;8.60;;
68505;SDS011;55509;50.680;17.942;2022-08-25T13:23:44;19.60;;;8.60;;
68505;SDS011;55509;50.680;17.942;2022-08-25T13:26:49;13.10;;;9.60;;
68505;SDS011;55509;50.680;17.942;2022-08-25T13:29:55;19.10;;;8.50;;
68505;SDS011;55509;50.680;17.942;2022-08-25T13:33:14;24.20;;;8.50;;
68505;SDS011;55509;50.680;17.942;2022-08-25T13:36:20;21.00;;;8.60;;
68505;SDS011;55509;50.680;17.942;2022-08-25T13:39:43;21.50;;;8.70;;
68505;SDS011;55509;50.680;17.942;2022-08-25T13:42:46;33.40;;;9.20;;
68505;SDS011;55509;50.680;17.942;2022-08-25T13:45:58;17.70;;;8.30;;
68505;SDS011;55509;50.680;17.942;2022-08-25T13:49:04;23.20;;;8.30;;
68505;SDS011;55509;50.680;17.942;2022-08-25T13:52:07;23.00;;;9.80;;
68505;SDS011;55509;50.680;17.942;2022-08-25T13:55:35;21.60;;;8.40;;
68505;SDS011;55509;50.680;17.942;2022-08-25T13:58:40;24.50;;;9.50;;
68505;SDS011;55509;50.680;17.942;2022-08-25T14:01:45;30.50;;;10.60;;
68505;SDS011;55509;50.680;17.942;2022-08-25T14:04:47;16.80;;;8.30;;
68505;SDS011;55509;50.680;17.942;2022-08-25T14:07:54;23.90;;;9.20;;
68505;SDS011;55509;50.680;17.942;2022-08-25T14:14:36;23.70;;;8.40;;
68505;SDS011;55509;50.680;17.942;2022-08-25T14:17:39;26.90;;;8.80;;
68505;SDS011;55509;50.680;17.942;2022-08-25T14:20:47;11.60;;;8.20;;
68505;SDS011;55509;50.680;17.942;2022-08-25T14:23:52;20.60;;;7.50;;
68505;SDS011;55509;50.680;17.942;2022-08-25T14:26:55;32.60;;;8.10;;
68505;SDS011;55509;50.680;17.942;2022-08-25T14:29:56;23.10;;;8.00;;
68505;SDS011;55509;50.680;17.942;2022-08-25T14:32:58;15.30;;;7.20;;
68505;SDS011;55509;50.680;17.942;2022-08-25T14:36:02;23.80;;;8.50;;
68505;SDS011;55509;50.680;17.942;2022-08-25T14:39:06;24.50;;;8.90;;
68505;SDS011;55509;50.680;17.942;2022-08-25T14:42:07;18.50;;;8.00;;
68505;SDS011;55509;50.680;17.942;2022-08-25T14:45:09;25.50;;;8.80;;
68505;SDS011;55509;50.680;17.942;2022-08-25T14:48:23;24.30;;;8.70;;
68505;SDS011;55509;50.680;17.942;2022-08-25T14:51:25;18.20;;;8.20;;
68505;SDS011;55509;50.680;17.942;2022-08-25T14:54:29;25.90;;;9.30;;
68505;SDS011;55509;50.680;17.942;2022-08-25T14:57:30;18.70;;;8.70;;
68505;SDS011;55509;50.680;17.942;2022-08-25T15:00:33;19.70;;;6.90;;
68505;SDS011;55509;50.680;17.942;2022-08-25T15:03:42;18.80;;;9.10;;
68505;SDS011;55509;50.680;17.942;2022-08-25T15:06:48;22.70;;;8.40;;
68505;SDS011;55509;50.680;17.942;2022-08-25T15:09:53;17.00;;;6.70;;
68505;SDS011;55509;50.680;17.942;2022-08-25T15:12:54;17.70;;;7.40;;
68505;SDS011;55509;50.680;17.942;2022-08-25T15:15:56;22.30;;;6.90;;
68505;SDS011;55509;50.680;17.942;2022-08-25T15:18:59;19.40;;;7.30;;
68505;SDS011;55509;50.680;17.942;2022-08-25T15:22:01;25.40;;;7.60;;
68505;SDS011;55509;50.680;17.942;2022-08-25T15:25:03;28.60;;;8.40;;
68505;SDS011;55509;50.680;17.942;2022-08-25T15:28:05;18.60;;;7.60;;
68505;SDS011;55509;50.680;17.942;2022-08-25T15:31:11;13.60;;;6.40;;
68505;SDS011;55509;50.680;17.942;2022-08-25T15:34:13;25.40;;;7.70;;
68505;SDS011;55509;50.680;17.942;2022-08-25T15:37:15;18.30;;;7.20;;
68505;SDS011;55509;50.680;17.942;2022-08-25T15:40:17;14.00;;;7.50;;
68505;SDS011;55509;50.680;17.942;2022-08-25T15:43:20;37.10;;;8.00;;
68505;SDS011;55509;50.680;17.942;2022-08-25T15:46:22;22.10;;;7.50;;
68505;SDS011;55509;50.680;17.942;2022-08-25T15:49:26;28.50;;;8.00;;
68505;SDS011;55509;50.680;17.942;2022-08-25T15:52:28;21.60;;;7.80;;
68505;SDS011;55509;50.680;17.942;2022-08-25T15:55:30;27.30;;;7.70;;
68505;SDS011;55509;50.680;17.942;2022-08-25T15:58:32;19.00;;;6.80;;
68505;SDS011;55509;50.680;17.942;2022-08-25T16:01:35;22.10;;;7.40;;
68505;SDS011;55509;50.680;17.942;2022-08-25T16:04:37;26.30;;;7.30;;
68505;SDS011;55509;50.680;17.942;2022-08-25T16:07:38;21.10;;;7.10;;
68505;SDS011;55509;50.680;17.942;2022-08-25T16:10:41;38.90;;;7.70;;
68505;SDS011;55509;50.680;17.942;2022-08-25T16:13:44;23.20;;;6.70;;
68505;SDS011;55509;50.680;17.942;2022-08-25T16:16:46;15.10;;;6.50;;
68505;SDS011;55509;50.680;17.942;2022-08-25T16:19:48;22.30;;;8.10;;
68505;SDS011;55509;50.680;17.942;2022-08-25T16:22:49;17.00;;;7.60;;
68505;SDS011;55509;50.680;17.942;2022-08-25T16:25:50;18.50;;;7.10;;
68505;SDS011;55509;50.680;17.942;2022-08-25T16:28:52;28.60;;;7.90;;
68505;SDS011;55509;50.680;17.942;2022-08-25T16:31:55;20.40;;;8.20;;
68505;SDS011;55509;50.680;17.942;2022-08-25T16:34:58;23.20;;;8.30;;
68505;SDS011;55509;50.680;17.942;2022-08-25T16:38:00;21.00;;;8.00;;
68505;SDS011;55509;50.680;17.942;2022-08-25T16:41:05;31.10;;;9.50;;
68505;SDS011;55509;50.680;17.942;2022-08-25T16:44:12;17.60;;;9.40;;
68505;SDS011;55509;50.680;17.942;2022-08-25T16:47:13;17.30;;;8.40;;
68505;SDS011;55509;50.680;17.942;2022-08-25T16:50:16;29.90;;;10.00;;
68505;SDS011;55509;50.680;17.942;2022-08-25T16:53:17;33.00;;;11.10;;
68505;SDS011;55509;50.680;17.942;2022-08-25T16:56:37;24.00;;;10.00;;
68505;SDS011;55509;50.680;17.942;2022-08-25T16:59:42;23.00;;;9.40;;
68505;SDS011;55509;50.680;17.942;2022-08-25T17:02:43;21.50;;;9.50;;
68505;SDS011;55509;50.680;17.942;2022-08-25T17:05:45;25.00;;;9.70;;
68505;SDS011;55509;50.680;17.942;2022-08-25T17:08:46;17.20;;;10.10;;
68505;SDS011;55509;50.680;17.942;2022-08-25T17:11:51;24.90;;;9.70;;
68505;SDS011;55509;50.680;17.942;2022-08-25T17:14:56;17.50;;;9.90;;
68505;SDS011;55509;50.680;17.942;2022-08-25T17:17:58;20.90;;;9.00;;
68505;SDS011;55509;50.680;17.942;2022-08-25T17:21:01;23.10;;;8.50;;
68505;SDS011;55509;50.680;17.942;2022-08-25T17:24:07;32.10;;;9.50;;
68505;SDS011;55509;50.680;17.942;2022-08-25T17:27:10;21.40;;;10.10;;
68505;SDS011;55509;50.680;17.942;2022-08-25T17:30:12;33.00;;;10.50;;
68505;SDS011;55509;50.680;17.942;2022-08-25T17:33:14;21.20;;;11.80;;
68505;SDS011;55509;50.680;17.942;2022-08-25T17:36:17;27.20;;;9.60;;
68505;SDS011;55509;50.680;17.942;2022-08-25T17:39:20;22.70;;;10.40;;
68505;SDS011;55509;50.680;17.942;2022-08-25T17:42:22;19.70;;;9.10;;
68505;SDS011;55509;50.680;17.942;2022-08-25T17:45:23;26.40;;;9.80;;
68505;SDS011;55509;50.680;17.942;2022-08-25T17:48:25;17.70;;;8.70;;
68505;SDS011;55509;50.680;17.942;2022-08-25T17:51:28;20.20;;;9.60;;
68505;SDS011;55509;50.680;17.942;2022-08-25T17:54:29;16.00;;;9.70;;
68505;SDS011;55509;50.680;17.942;2022-08-25T17:57:31;21.90;;;9.70;;
68505;SDS011;55509;50.680;17.942;2022-08-25T18:00:34;18.40;;;9.90;;
68505;SDS011;55509;50.680;17.942;2022-08-25T18:03:37;23.10;;;9.20;;
68505;SDS011;55509;50.680;17.942;2022-08-25T18:06:38;21.50;;;10.80;;
68505;SDS011;55509;50.680;17.942;2022-08-25T18:09:40;31.10;;;11.20;;
68505;SDS011;55509;50.680;17.942;2022-08-25T18:12:42;17.20;;;8.90;;
68505;SDS011;55509;50.680;17.942;2022-08-25T18:15:44;27.60;;;10.50;;
68505;SDS011;55509;50.680;17.942;2022-08-25T18:18:46;23.30;;;10.30;;
68505;SDS011;55509;50.680;17.942;2022-08-25T18:21:47;22.40;;;9.80;;
68505;SDS011;55509;50.680;17.942;2022-08-25T18:24:49;15.90;;;9.60;;
68505;SDS011;55509;50.680;17.942;2022-08-25T18:27:55;17.50;;;9.50;;
68505;SDS011;55509;50.680;17.942;2022-08-25T18:30:57;14.70;;;9.30;;
68505;SDS011;55509;50.680;17.942;2022-08-25T18:33:58;12.90;;;8.50;;
68505;SDS011;55509;50.680;17.942;2022-08-25T18:37:00;18.70;;;7.90;;
68505;SDS011;55509;50.680;17.942;2022-08-25T18:40:23;31.50;;;9.20;;
68505;SDS011;55509;50.680;17.942;2022-08-25T18:43:25;26.40;;;8.90;;
68505;SDS011;55509;50.680;17.942;2022-08-25T18:46:28;20.30;;;9.20;;
68505;SDS011;55509;50.680;17.942;2022-08-25T18:49:29;29.20;;;10.90;;
68505;SDS011;55509;50.680;17.942;2022-08-25T18:52:31;17.20;;;9.30;;
68505;SDS011;55509;50.680;17.942;2022-08-25T18:55:33;22.60;;;9.40;;
68505;SDS011;55509;50.680;17.942;2022-08-25T18:58:35;30.50;;;9.60;;
68505;SDS011;55509;50.680;17.942;2022-08-25T19:01:37;26.50;;;17.60;;
68505;SDS011;55509;50.680;17.942;2022-08-25T19:04:38;15.10;;;11.30;;
68505;SDS011;55509;50.680;17.942;2022-08-25T19:07:40;26.70;;;10.60;;
68505;SDS011;55509;50.680;17.942;2022-08-25T19:10:43;19.10;;;9.80;;
68505;SDS011;55509;50.680;17.942;2022-08-25T19:13:46;16.00;;;9.70;;
68505;SDS011;55509;50.680;17.942;2022-08-25T19:16:48;15.10;;;9.00;;
68505;SDS011;55509;50.680;17.942;2022-08-25T19:19:51;21.20;;;10.30;;
68505;SDS011;55509;50.680;17.942;2022-08-25T19:22:53;20.10;;;9.30;;